sensor_id;sensor_type;location;lat;lon;timestamp;P1;durP1;ratioP1;P2;durP2;ratioP2
9976;SDS011;5029;47.378;11.776;2022-11-25T00:01:25;10.13;;;7.77;;
9976;SDS011;5029;47.378;11.776;2022-11-25T00:06:32;7.93;;;7.03;;
9976;SDS011;5029;47.378;11.776;2022-11-25T00:11:38;9.57;;;8.27;;
9976;SDS011;5029;47.378;11.776;2022-11-25T00:16:50;8.77;;;7.87;;
9976;SDS011;5029;47.378;11.776;2022-11-25T00:21:57;8.20;;;7.37;;
9976;SDS011;5029;47.378;11.776;2022-11-25T00:27:04;8.37;;;7.57;;
9976;SDS011;5029;47.378;11.776;2022-11-25T00:32:11;8.77;;;7.70;;
9976;SDS011;5029;47.378;11.776;2022-11-25T00:37:19;9.17;;;8.27;;
9976;SDS011;5029;47.378;11.776;2022-11-25T00:42:25;9.30;;;8.00;;
9976;SDS011;5029;47.378;11.776;2022-11-25T00:47:51;7.80;;;6.97;;
9976;SDS011;5029;47.378;11.776;2022-11-25T00:52:59;8.60;;;7.23;;
9976;SDS011;5029;47.378;11.776;2022-11-25T00:58:02;7.73;;;6.93;;
9976;SDS011;5029;47.378;11.776;2022-11-25T01:03:09;7.37;;;6.67;;
9976;SDS011;5029;47.378;11.776;2022-11-25T01:08:15;7.27;;;6.57;;
9976;SDS011;5029;47.378;11.776;2022-11-25T01:13:18;7.53;;;6.83;;
9976;SDS011;5029;47.378;11.776;2022-11-25T01:18:24;7.73;;;6.93;;
9976;SDS011;5029;47.378;11.776;2022-11-25T01:23:33;7.43;;;6.70;;
9976;SDS011;5029;47.378;11.776;2022-11-25T01:28:40;7.80;;;7.10;;
9976;SDS011;5029;47.378;11.776;2022-11-25T01:33:45;7.03;;;6.33;;
9976;SDS011;5029;47.378;11.776;2022-11-25T01:38:52;6.47;;;5.87;;
9976;SDS011;5029;47.378;11.776;2022-11-25T01:44:02;6.77;;;6.07;;
9976;SDS011;5029;47.378;11.776;2022-11-25T01:49:09;7.40;;;6.37;;
9976;SDS011;5029;47.378;11.776;2022-11-25T01:54:23;5.70;;;5.20;;
9976;SDS011;5029;47.378;11.776;2022-11-25T01:59:31;6.20;;;5.60;;
9976;SDS011;5029;47.378;11.776;2022-11-25T02:04:40;8.10;;;5.93;;
9976;SDS011;5029;47.378;11.776;2022-11-25T02:09:46;6.47;;;5.83;;
9976;SDS011;5029;47.378;11.776;2022-11-25T02:14:51;5.60;;;5.00;;
9976;SDS011;5029;47.378;11.776;2022-11-25T02:19:58;6.07;;;5.47;;
9976;SDS011;5029;47.378;11.776;2022-11-25T02:25:11;6.47;;;5.87;;
9976;SDS011;5029;47.378;11.776;2022-11-25T02:30:16;6.73;;;6.00;;
9976;SDS011;5029;47.378;11.776;2022-11-25T02:35:27;6.40;;;5.50;;
9976;SDS011;5029;47.378;11.776;2022-11-25T02:40:36;6.23;;;5.63;;
9976;SDS011;5029;47.378;11.776;2022-11-25T02:45:55;6.77;;;6.07;;
9976;SDS011;5029;47.378;11.776;2022-11-25T02:51:01;5.33;;;4.83;;
9976;SDS011;5029;47.378;11.776;2022-11-25T02:56:06;4.10;;;3.63;;
9976;SDS011;5029;47.378;11.776;2022-11-25T03:01:11;5.90;;;4.97;;
9976;SDS011;5029;47.378;11.776;2022-11-25T03:06:14;7.47;;;6.47;;
9976;SDS011;5029;47.378;11.776;2022-11-25T03:11:19;7.20;;;6.50;;
9976;SDS011;5029;47.378;11.776;2022-11-25T03:16:43;7.50;;;6.70;;
9976;SDS011;5029;47.378;11.776;2022-11-25T03:21:47;7.50;;;6.50;;
9976;SDS011;5029;47.378;11.776;2022-11-25T03:26:52;7.80;;;6.77;;
9976;SDS011;5029;47.378;11.776;2022-11-25T03:31:55;7.23;;;6.53;;
9976;SDS011;5029;47.378;11.776;2022-11-25T03:36:59;7.73;;;6.93;;
9976;SDS011;5029;47.378;11.776;2022-11-25T03:42:04;8.87;;;7.93;;
9976;SDS011;5029;47.378;11.776;2022-11-25T03:47:08;8.50;;;7.67;;
9976;SDS011;5029;47.378;11.776;2022-11-25T03:52:12;8.23;;;7.47;;
9976;SDS011;5029;47.378;11.776;2022-11-25T03:57:16;8.90;;;8.00;;
9976;SDS011;5029;47.378;11.776;2022-11-25T04:02:20;8.80;;;8.00;;
9976;SDS011;5029;47.378;11.776;2022-11-25T04:07:24;8.20;;;7.40;;
9976;SDS011;5029;47.378;11.776;2022-11-25T04:12:29;8.13;;;7.33;;
9976;SDS011;5029;47.378;11.776;2022-11-25T04:17:52;8.00;;;7.27;;
9976;SDS011;5029;47.378;11.776;2022-11-25T04:22:56;7.87;;;7.07;;
9976;SDS011;5029;47.378;11.776;2022-11-25T04:28:01;7.67;;;6.87;;
9976;SDS011;5029;47.378;11.776;2022-11-25T04:33:06;8.23;;;7.17;;
9976;SDS011;5029;47.378;11.776;2022-11-25T04:38:09;8.07;;;7.27;;
9976;SDS011;5029;47.378;11.776;2022-11-25T04:43:14;8.87;;;7.53;;
9976;SDS011;5029;47.378;11.776;2022-11-25T04:48:18;8.93;;;8.03;;
9976;SDS011;5029;47.378;11.776;2022-11-25T04:53:22;7.43;;;6.73;;
9976;SDS011;5029;47.378;11.776;2022-11-25T04:58:27;8.30;;;7.50;;
9976;SDS011;5029;47.378;11.776;2022-11-25T05:03:47;8.10;;;7.30;;
9976;SDS011;5029;47.378;11.776;2022-11-25T05:08:57;8.30;;;7.50;;
9976;SDS011;5029;47.378;11.776;2022-11-25T05:14:02;8.10;;;7.30;;
9976;SDS011;5029;47.378;11.776;2022-11-25T05:19:06;9.37;;;8.47;;
9976;SDS011;5029;47.378;11.776;2022-11-25T05:24:09;9.07;;;8.17;;
9976;SDS011;5029;47.378;11.776;2022-11-25T05:29:14;8.17;;;7.37;;
9976;SDS011;5029;47.378;11.776;2022-11-25T05:34:18;8.57;;;7.70;;
9976;SDS011;5029;47.378;11.776;2022-11-25T05:39:21;8.40;;;7.60;;
9976;SDS011;5029;47.378;11.776;2022-11-25T05:44:26;9.40;;;8.40;;
9976;SDS011;5029;47.378;11.776;2022-11-25T05:49:30;9.03;;;8.13;;
9976;SDS011;5029;47.378;11.776;2022-11-25T05:54:34;9.37;;;8.37;;
9976;SDS011;5029;47.378;11.776;2022-11-25T05:59:39;10.13;;;9.13;;
9976;SDS011;5029;47.378;11.776;2022-11-25T06:11:44;9.63;;;8.70;;
9976;SDS011;5029;47.378;11.776;2022-11-25T06:17:21;8.27;;;7.47;;
9976;SDS011;5029;47.378;11.776;2022-11-25T06:22:25;8.63;;;7.73;;
9976;SDS011;5029;47.378;11.776;2022-11-25T06:27:31;9.03;;;8.13;;
9976;SDS011;5029;47.378;11.776;2022-11-25T06:32:57;8.07;;;7.27;;
9976;SDS011;5029;47.378;11.776;2022-11-25T06:38:01;7.53;;;6.80;;
9976;SDS011;5029;47.378;11.776;2022-11-25T06:43:04;7.50;;;6.70;;
9976;SDS011;5029;47.378;11.776;2022-11-25T06:48:10;7.37;;;6.53;;
9976;SDS011;5029;47.378;11.776;2022-11-25T06:53:13;7.37;;;6.67;;
9976;SDS011;5029;47.378;11.776;2022-11-25T06:58:24;7.37;;;6.67;;
9976;SDS011;5029;47.378;11.776;2022-11-25T07:03:38;7.13;;;6.43;;
9976;SDS011;5029;47.378;11.776;2022-11-25T07:08:42;7.23;;;6.50;;
9976;SDS011;5029;47.378;11.776;2022-11-25T07:13:46;8.57;;;7.67;;
9976;SDS011;5029;47.378;11.776;2022-11-25T07:24:52;7.00;;;6.00;;
9976;SDS011;5029;47.378;11.776;2022-11-25T07:30:00;7.30;;;6.60;;
9976;SDS011;5029;47.378;11.776;2022-11-25T07:35:43;8.57;;;7.03;;
9976;SDS011;5029;47.378;11.776;2022-11-25T07:40:48;7.90;;;7.10;;
9976;SDS011;5029;47.378;11.776;2022-11-25T07:45:52;6.87;;;6.27;;
9976;SDS011;5029;47.378;11.776;2022-11-25T07:50:55;7.63;;;6.93;;
9976;SDS011;5029;47.378;11.776;2022-11-25T07:56:04;7.53;;;6.83;;
9976;SDS011;5029;47.378;11.776;2022-11-25T08:01:09;7.80;;;7.03;;
9976;SDS011;5029;47.378;11.776;2022-11-25T08:06:17;8.67;;;6.63;;
9976;SDS011;5029;47.378;11.776;2022-11-25T08:11:25;7.30;;;6.60;;
9976;SDS011;5029;47.378;11.776;2022-11-25T08:16:33;6.80;;;6.20;;
9976;SDS011;5029;47.378;11.776;2022-11-25T08:21:37;7.30;;;6.60;;
9976;SDS011;5029;47.378;11.776;2022-11-25T08:26:44;7.07;;;6.47;;
9976;SDS011;5029;47.378;11.776;2022-11-25T08:31:51;8.23;;;6.93;;
9976;SDS011;5029;47.378;11.776;2022-11-25T08:36:55;6.80;;;6.13;;
9976;SDS011;5029;47.378;11.776;2022-11-25T08:42:02;8.23;;;6.10;;
9976;SDS011;5029;47.378;11.776;2022-11-25T08:47:07;8.13;;;6.80;;
9976;SDS011;5029;47.378;11.776;2022-11-25T08:52:18;7.30;;;6.57;;
9976;SDS011;5029;47.378;11.776;2022-11-25T08:57:35;7.73;;;5.97;;
9976;SDS011;5029;47.378;11.776;2022-11-25T09:02:54;5.80;;;5.30;;
9976;SDS011;5029;47.378;11.776;2022-11-25T09:08:49;6.37;;;5.73;;
9976;SDS011;5029;47.378;11.776;2022-11-25T09:20:43;6.23;;;5.63;;
9976;SDS011;5029;47.378;11.776;2022-11-25T09:25:38;5.93;;;5.33;;
9976;SDS011;5029;47.378;11.776;2022-11-25T09:30:44;6.40;;;5.50;;
9976;SDS011;5029;47.378;11.776;2022-11-25T09:35:48;6.80;;;6.10;;
9976;SDS011;5029;47.378;11.776;2022-11-25T09:40:53;6.53;;;5.90;;
9976;SDS011;5029;47.378;11.776;2022-11-25T09:46:05;5.93;;;5.43;;
9976;SDS011;5029;47.378;11.776;2022-11-25T09:51:39;6.43;;;5.60;;
9976;SDS011;5029;47.378;11.776;2022-11-25T09:56:59;5.47;;;4.97;;
9976;SDS011;5029;47.378;11.776;2022-11-25T10:02:15;5.27;;;4.77;;
9976;SDS011;5029;47.378;11.776;2022-11-25T10:07:24;5.00;;;4.60;;
9976;SDS011;5029;47.378;11.776;2022-11-25T10:12:34;5.50;;;4.60;;
9976;SDS011;5029;47.378;11.776;2022-11-25T10:17:46;6.67;;;3.80;;
9976;SDS011;5029;47.378;11.776;2022-11-25T10:22:53;4.87;;;3.97;;
9976;SDS011;5029;47.378;11.776;2022-11-25T10:28:11;3.77;;;3.33;;
9976;SDS011;5029;47.378;11.776;2022-11-25T10:33:29;3.60;;;3.10;;
9976;SDS011;5029;47.378;11.776;2022-11-25T10:38:38;2.40;;;2.00;;
9976;SDS011;5029;47.378;11.776;2022-11-25T10:43:47;1.57;;;1.47;;
9976;SDS011;5029;47.378;11.776;2022-11-25T10:48:55;1.40;;;1.23;;
9976;SDS011;5029;47.378;11.776;2022-11-25T10:54:10;1.67;;;1.20;;
9976;SDS011;5029;47.378;11.776;2022-11-25T10:59:29;1.40;;;1.00;;
9976;SDS011;5029;47.378;11.776;2022-11-25T11:04:35;2.07;;;1.20;;
9976;SDS011;5029;47.378;11.776;2022-11-25T11:10:06;1.83;;;1.30;;
9976;SDS011;5029;47.378;11.776;2022-11-25T11:15:21;2.23;;;1.70;;
9976;SDS011;5029;47.378;11.776;2022-11-25T11:20:27;1.50;;;1.13;;
9976;SDS011;5029;47.378;11.776;2022-11-25T11:25:32;2.13;;;1.10;;
9976;SDS011;5029;47.378;11.776;2022-11-25T11:30:37;1.70;;;1.20;;
9976;SDS011;5029;47.378;11.776;2022-11-25T11:36:00;0.93;;;0.83;;
9976;SDS011;5029;47.378;11.776;2022-11-25T11:41:18;1.00;;;0.90;;
9976;SDS011;5029;47.378;11.776;2022-11-25T11:46:39;1.10;;;1.00;;
9976;SDS011;5029;47.378;11.776;2022-11-25T11:51:57;2.53;;;1.20;;
9976;SDS011;5029;47.378;11.776;2022-11-25T11:57:09;2.10;;;1.17;;
9976;SDS011;5029;47.378;11.776;2022-11-25T12:02:32;1.10;;;0.90;;
9976;SDS011;5029;47.378;11.776;2022-11-25T12:07:45;1.20;;;0.87;;
9976;SDS011;5029;47.378;11.776;2022-11-25T12:13:01;2.70;;;1.40;;
9976;SDS011;5029;47.378;11.776;2022-11-25T12:18:18;1.63;;;0.93;;
9976;SDS011;5029;47.378;11.776;2022-11-25T12:23:36;1.40;;;1.20;;
9976;SDS011;5029;47.378;11.776;2022-11-25T12:28:47;3.37;;;3.07;;
9976;SDS011;5029;47.378;11.776;2022-11-25T12:33:59;2.43;;;1.37;;
9976;SDS011;5029;47.378;11.776;2022-11-25T12:39:14;1.20;;;0.70;;
9976;SDS011;5029;47.378;11.776;2022-11-25T12:44:24;0.63;;;0.60;;
9976;SDS011;5029;47.378;11.776;2022-11-25T12:49:37;6.60;;;3.87;;
9976;SDS011;5029;47.378;11.776;2022-11-25T13:00:15;3.40;;;2.10;;
9976;SDS011;5029;47.378;11.776;2022-11-25T13:05:51;1.27;;;0.80;;
9976;SDS011;5029;47.378;11.776;2022-11-25T13:16:47;1.80;;;1.40;;
9976;SDS011;5029;47.378;11.776;2022-11-25T13:21:56;1.50;;;1.20;;
9976;SDS011;5029;47.378;11.776;2022-11-25T13:27:03;2.30;;;1.90;;
9976;SDS011;5029;47.378;11.776;2022-11-25T13:37:34;0.50;;;0.50;;
9976;SDS011;5029;47.378;11.776;2022-11-25T13:42:43;1.13;;;0.50;;
9976;SDS011;5029;47.378;11.776;2022-11-25T13:47:47;1.20;;;0.53;;
9976;SDS011;5029;47.378;11.776;2022-11-25T13:52:59;0.73;;;0.60;;
9976;SDS011;5029;47.378;11.776;2022-11-25T13:58:17;0.70;;;0.70;;
9976;SDS011;5029;47.378;11.776;2022-11-25T14:03:40;1.03;;;0.60;;
9976;SDS011;5029;47.378;11.776;2022-11-25T14:08:50;0.70;;;0.70;;
9976;SDS011;5029;47.378;11.776;2022-11-25T14:14:05;0.77;;;0.67;;
9976;SDS011;5029;47.378;11.776;2022-11-25T14:19:34;0.90;;;0.70;;
9976;SDS011;5029;47.378;11.776;2022-11-25T14:25:00;0.97;;;0.67;;
9976;SDS011;5029;47.378;11.776;2022-11-25T14:30:17;3.60;;;1.00;;
9976;SDS011;5029;47.378;11.776;2022-11-25T14:35:27;1.80;;;1.30;;
9976;SDS011;5029;47.378;11.776;2022-11-25T14:40:50;2.43;;;1.40;;
9976;SDS011;5029;47.378;11.776;2022-11-25T14:46:12;1.70;;;1.47;;
9976;SDS011;5029;47.378;11.776;2022-11-25T14:51:21;1.70;;;1.50;;
9976;SDS011;5029;47.378;11.776;2022-11-25T14:56:35;2.50;;;1.83;;
9976;SDS011;5029;47.378;11.776;2022-11-25T15:07:40;1.43;;;1.20;;
9976;SDS011;5029;47.378;11.776;2022-11-25T15:12:50;1.87;;;1.00;;
9976;SDS011;5029;47.378;11.776;2022-11-25T15:17:56;1.50;;;1.20;;
9976;SDS011;5029;47.378;11.776;2022-11-25T15:23:02;2.67;;;1.20;;
9976;SDS011;5029;47.378;11.776;2022-11-25T15:28:13;2.73;;;0.90;;
9976;SDS011;5029;47.378;11.776;2022-11-25T15:33:22;1.37;;;1.20;;
9976;SDS011;5029;47.378;11.776;2022-11-25T15:43:55;2.27;;;1.30;;
9976;SDS011;5029;47.378;11.776;2022-11-25T15:49:03;1.30;;;1.17;;
9976;SDS011;5029;47.378;11.776;2022-11-25T15:54:14;1.00;;;0.87;;
9976;SDS011;5029;47.378;11.776;2022-11-25T15:59:40;1.00;;;0.90;;
9976;SDS011;5029;47.378;11.776;2022-11-25T16:04:49;1.07;;;0.50;;
9976;SDS011;5029;47.378;11.776;2022-11-25T16:09:53;0.57;;;0.57;;
9976;SDS011;5029;47.378;11.776;2022-11-25T16:14:58;1.63;;;1.00;;
9976;SDS011;5029;47.378;11.776;2022-11-25T16:25:22;1.10;;;0.80;;
9976;SDS011;5029;47.378;11.776;2022-11-25T16:30:25;1.23;;;0.70;;
9976;SDS011;5029;47.378;11.776;2022-11-25T16:35:36;0.80;;;0.80;;
9976;SDS011;5029;47.378;11.776;2022-11-25T16:40:41;1.60;;;1.13;;
9976;SDS011;5029;47.378;11.776;2022-11-25T16:45:48;2.77;;;1.40;;
9976;SDS011;5029;47.378;11.776;2022-11-25T16:50:55;3.03;;;1.33;;
9976;SDS011;5029;47.378;11.776;2022-11-25T16:56:10;1.10;;;1.00;;
9976;SDS011;5029;47.378;11.776;2022-11-25T17:01:16;1.30;;;1.20;;
9976;SDS011;5029;47.378;11.776;2022-11-25T17:06:27;1.70;;;1.60;;
9976;SDS011;5029;47.378;11.776;2022-11-25T17:11:35;5.80;;;1.70;;
9976;SDS011;5029;47.378;11.776;2022-11-25T17:16:47;1.93;;;1.67;;
9976;SDS011;5029;47.378;11.776;2022-11-25T17:21:56;2.50;;;2.10;;
9976;SDS011;5029;47.378;11.776;2022-11-25T17:27:00;1.90;;;1.30;;
9976;SDS011;5029;47.378;11.776;2022-11-25T17:32:08;2.10;;;1.50;;
9976;SDS011;5029;47.378;11.776;2022-11-25T17:37:18;2.57;;;1.90;;
9976;SDS011;5029;47.378;11.776;2022-11-25T17:42:25;5.30;;;4.80;;
9976;SDS011;5029;47.378;11.776;2022-11-25T17:47:33;4.83;;;3.20;;
9976;SDS011;5029;47.378;11.776;2022-11-25T17:52:43;2.33;;;1.90;;
9976;SDS011;5029;47.378;11.776;2022-11-25T17:57:49;3.97;;;2.87;;
9976;SDS011;5029;47.378;11.776;2022-11-25T18:02:53;2.93;;;2.20;;
9976;SDS011;5029;47.378;11.776;2022-11-25T18:07:59;3.83;;;2.53;;
9976;SDS011;5029;47.378;11.776;2022-11-25T18:13:03;4.57;;;3.33;;
9976;SDS011;5029;47.378;11.776;2022-11-25T18:18:12;3.33;;;2.83;;
9976;SDS011;5029;47.378;11.776;2022-11-25T18:23:24;4.00;;;2.50;;
9976;SDS011;5029;47.378;11.776;2022-11-25T18:28:29;3.03;;;2.67;;
9976;SDS011;5029;47.378;11.776;2022-11-25T18:33:35;3.10;;;2.80;;
9976;SDS011;5029;47.378;11.776;2022-11-25T18:38:41;3.30;;;2.60;;
9976;SDS011;5029;47.378;11.776;2022-11-25T18:43:46;3.80;;;2.83;;
9976;SDS011;5029;47.378;11.776;2022-11-25T18:48:51;3.63;;;2.90;;
9976;SDS011;5029;47.378;11.776;2022-11-25T18:54:00;3.07;;;2.67;;
9976;SDS011;5029;47.378;11.776;2022-11-25T18:59:06;4.27;;;3.13;;
9976;SDS011;5029;47.378;11.776;2022-11-25T19:04:16;4.53;;;3.53;;
9976;SDS011;5029;47.378;11.776;2022-11-25T19:09:23;4.97;;;3.53;;
9976;SDS011;5029;47.378;11.776;2022-11-25T19:14:28;4.33;;;3.70;;
9976;SDS011;5029;47.378;11.776;2022-11-25T19:19:35;4.90;;;4.40;;
9976;SDS011;5029;47.378;11.776;2022-11-25T19:24:45;7.47;;;5.40;;
9976;SDS011;5029;47.378;11.776;2022-11-25T19:29:50;8.80;;;6.43;;
9976;SDS011;5029;47.378;11.776;2022-11-25T19:34:56;7.80;;;7.00;;
9976;SDS011;5029;47.378;11.776;2022-11-25T19:40:11;7.77;;;7.07;;
9976;SDS011;5029;47.378;11.776;2022-11-25T19:45:18;11.73;;;6.87;;
9976;SDS011;5029;47.378;11.776;2022-11-25T19:50:25;9.53;;;6.03;;
9976;SDS011;5029;47.378;11.776;2022-11-25T19:55:33;7.67;;;6.60;;
9976;SDS011;5029;47.378;11.776;2022-11-25T20:00:38;8.80;;;5.97;;
9976;SDS011;5029;47.378;11.776;2022-11-25T20:05:43;7.93;;;6.00;;
9976;SDS011;5029;47.378;11.776;2022-11-25T20:10:51;6.03;;;5.30;;
9976;SDS011;5029;47.378;11.776;2022-11-25T20:15:57;9.20;;;5.60;;
9976;SDS011;5029;47.378;11.776;2022-11-25T20:21:03;8.40;;;6.40;;
9976;SDS011;5029;47.378;11.776;2022-11-25T20:26:13;8.03;;;6.30;;
9976;SDS011;5029;47.378;11.776;2022-11-25T20:31:23;6.77;;;5.70;;
9976;SDS011;5029;47.378;11.776;2022-11-25T20:36:34;8.87;;;6.73;;
9976;SDS011;5029;47.378;11.776;2022-11-25T20:41:49;10.87;;;7.57;;
9976;SDS011;5029;47.378;11.776;2022-11-25T20:46:57;21.57;;;13.27;;
9976;SDS011;5029;47.378;11.776;2022-11-25T20:52:11;14.17;;;8.60;;
9976;SDS011;5029;47.378;11.776;2022-11-25T20:57:26;6.87;;;5.30;;
9976;SDS011;5029;47.378;11.776;2022-11-25T21:02:31;6.50;;;4.97;;
9976;SDS011;5029;47.378;11.776;2022-11-25T21:07:38;6.57;;;5.23;;
9976;SDS011;5029;47.378;11.776;2022-11-25T21:12:44;6.67;;;5.30;;
9976;SDS011;5029;47.378;11.776;2022-11-25T21:17:52;5.37;;;4.63;;
9976;SDS011;5029;47.378;11.776;2022-11-25T21:22:58;7.20;;;5.37;;
9976;SDS011;5029;47.378;11.776;2022-11-25T21:28:17;7.23;;;5.87;;
9976;SDS011;5029;47.378;11.776;2022-11-25T21:33:27;6.73;;;5.13;;
9976;SDS011;5029;47.378;11.776;2022-11-25T21:38:31;7.80;;;6.17;;
9976;SDS011;5029;47.378;11.776;2022-11-25T21:43:38;9.97;;;5.97;;
9976;SDS011;5029;47.378;11.776;2022-11-25T21:48:47;9.13;;;6.13;;
9976;SDS011;5029;47.378;11.776;2022-11-25T21:53:51;7.27;;;5.80;;
9976;SDS011;5029;47.378;11.776;2022-11-25T21:59:03;6.03;;;5.20;;
9976;SDS011;5029;47.378;11.776;2022-11-25T22:04:11;7.17;;;6.00;;
9976;SDS011;5029;47.378;11.776;2022-11-25T22:09:20;8.10;;;5.87;;
9976;SDS011;5029;47.378;11.776;2022-11-25T22:14:36;6.43;;;5.70;;
9976;SDS011;5029;47.378;11.776;2022-11-25T22:19:40;9.50;;;5.63;;
9976;SDS011;5029;47.378;11.776;2022-11-25T22:24:44;6.47;;;5.63;;
9976;SDS011;5029;47.378;11.776;2022-11-25T22:29:49;7.50;;;5.40;;
9976;SDS011;5029;47.378;11.776;2022-11-25T22:34:54;7.03;;;5.50;;
9976;SDS011;5029;47.378;11.776;2022-11-25T22:40:00;6.27;;;5.47;;
9976;SDS011;5029;47.378;11.776;2022-11-25T22:45:06;6.00;;;4.67;;
9976;SDS011;5029;47.378;11.776;2022-11-25T22:50:21;4.87;;;4.40;;
9976;SDS011;5029;47.378;11.776;2022-11-25T22:55:27;4.57;;;3.77;;
9976;SDS011;5029;47.378;11.776;2022-11-25T23:00:33;6.03;;;4.93;;
9976;SDS011;5029;47.378;11.776;2022-11-25T23:05:39;6.57;;;5.00;;
9976;SDS011;5029;47.378;11.776;2022-11-25T23:10:46;8.60;;;5.40;;
9976;SDS011;5029;47.378;11.776;2022-11-25T23:15:53;6.17;;;5.57;;
9976;SDS011;5029;47.378;11.776;2022-11-25T23:20:58;7.33;;;5.90;;
9976;SDS011;5029;47.378;11.776;2022-11-25T23:26:05;7.33;;;6.53;;
9976;SDS011;5029;47.378;11.776;2022-11-25T23:37:17;7.13;;;6.00;;
9976;SDS011;5029;47.378;11.776;2022-11-25T23:42:21;7.00;;;6.30;;
9976;SDS011;5029;47.378;11.776;2022-11-25T23:47:24;9.10;;;6.93;;
9976;SDS011;5029;47.378;11.776;2022-11-25T23:52:30;6.60;;;5.83;;
9976;SDS011;5029;47.378;11.776;2022-11-25T23:57:33;8.87;;;6.73;;
